sensor_id;sensor_type;location;lat;lon;timestamp;P1;durP1;ratioP1;P2;durP2;ratioP2
18194;SDS011;9223;50.988;3.162;2022-11-06T00:04:48;4.55;;;3.20;;
18194;SDS011;9223;50.988;3.162;2022-11-06T00:10:51;5.10;;;3.03;;
18194;SDS011;9223;50.988;3.162;2022-11-06T00:16:55;7.80;;;3.63;;
18194;SDS011;9223;50.988;3.162;2022-11-06T00:23:00;5.75;;;3.30;;
18194;SDS011;9223;50.988;3.162;2022-11-06T00:29:03;5.95;;;3.40;;
18194;SDS011;9223;50.988;3.162;2022-11-06T00:35:07;6.90;;;3.65;;
18194;SDS011;9223;50.988;3.162;2022-11-06T00:41:13;7.55;;;3.83;;
18194;SDS011;9223;50.988;3.162;2022-11-06T00:47:16;4.55;;;3.15;;
18194;SDS011;9223;50.988;3.162;2022-11-06T00:53:20;6.35;;;3.25;;
18194;SDS011;9223;50.988;3.162;2022-11-06T00:59:24;9.57;;;4.00;;
18194;SDS011;9223;50.988;3.162;2022-11-06T01:05:28;7.95;;;3.90;;
18194;SDS011;9223;50.988;3.162;2022-11-06T01:11:32;9.23;;;3.90;;
18194;SDS011;9223;50.988;3.162;2022-11-06T01:17:56;5.07;;;3.22;;
18194;SDS011;9223;50.988;3.162;2022-11-06T01:24:01;6.70;;;3.67;;
18194;SDS011;9223;50.988;3.162;2022-11-06T01:30:05;4.57;;;2.95;;
18194;SDS011;9223;50.988;3.162;2022-11-06T01:36:10;4.72;;;3.22;;
18194;SDS011;9223;50.988;3.162;2022-11-06T01:42:14;4.18;;;3.25;;
18194;SDS011;9223;50.988;3.162;2022-11-06T01:48:19;4.75;;;2.67;;
18194;SDS011;9223;50.988;3.162;2022-11-06T01:54:24;4.85;;;3.33;;
18194;SDS011;9223;50.988;3.162;2022-11-06T02:00:29;9.48;;;4.07;;
18194;SDS011;9223;50.988;3.162;2022-11-06T02:06:33;5.57;;;2.88;;
18194;SDS011;9223;50.988;3.162;2022-11-06T02:12:51;8.23;;;3.70;;
18194;SDS011;9223;50.988;3.162;2022-11-06T02:19:00;6.28;;;3.38;;
18194;SDS011;9223;50.988;3.162;2022-11-06T02:25:11;5.35;;;3.47;;
18194;SDS011;9223;50.988;3.162;2022-11-06T02:31:17;5.38;;;3.20;;
18194;SDS011;9223;50.988;3.162;2022-11-06T02:37:23;4.97;;;2.75;;
18194;SDS011;9223;50.988;3.162;2022-11-06T02:43:30;5.80;;;3.03;;
18194;SDS011;9223;50.988;3.162;2022-11-06T02:49:38;4.20;;;2.65;;
18194;SDS011;9223;50.988;3.162;2022-11-06T02:55:44;4.45;;;2.95;;
18194;SDS011;9223;50.988;3.162;2022-11-06T03:01:48;6.70;;;3.55;;
18194;SDS011;9223;50.988;3.162;2022-11-06T03:07:56;4.40;;;2.90;;
18194;SDS011;9223;50.988;3.162;2022-11-06T03:14:02;4.70;;;2.83;;
18194;SDS011;9223;50.988;3.162;2022-11-06T03:20:12;6.18;;;3.53;;
18194;SDS011;9223;50.988;3.162;2022-11-06T03:26:19;7.05;;;3.38;;
18194;SDS011;9223;50.988;3.162;2022-11-06T03:32:25;5.32;;;2.47;;
18194;SDS011;9223;50.988;3.162;2022-11-06T03:38:32;5.53;;;2.88;;
18194;SDS011;9223;50.988;3.162;2022-11-06T03:44:44;4.63;;;2.97;;
18194;SDS011;9223;50.988;3.162;2022-11-06T03:50:50;8.55;;;3.75;;
18194;SDS011;9223;50.988;3.162;2022-11-06T03:56:56;7.32;;;3.78;;
18194;SDS011;9223;50.988;3.162;2022-11-06T04:03:04;5.55;;;3.20;;
18194;SDS011;9223;50.988;3.162;2022-11-06T04:09:09;5.57;;;2.90;;
18194;SDS011;9223;50.988;3.162;2022-11-06T04:15:32;7.80;;;3.35;;
18194;SDS011;9223;50.988;3.162;2022-11-06T04:21:42;8.75;;;2.88;;
18194;SDS011;9223;50.988;3.162;2022-11-06T04:27:53;7.53;;;3.75;;
18194;SDS011;9223;50.988;3.162;2022-11-06T04:34:03;4.70;;;2.65;;
18194;SDS011;9223;50.988;3.162;2022-11-06T04:40:12;5.57;;;3.58;;
18194;SDS011;9223;50.988;3.162;2022-11-06T04:46:18;5.20;;;2.75;;
18194;SDS011;9223;50.988;3.162;2022-11-06T04:52:24;6.28;;;2.60;;
18194;SDS011;9223;50.988;3.162;2022-11-06T04:58:29;7.18;;;3.08;;
18194;SDS011;9223;50.988;3.162;2022-11-06T05:04:32;3.97;;;2.47;;
18194;SDS011;9223;50.988;3.162;2022-11-06T05:10:36;7.85;;;2.65;;
18194;SDS011;9223;50.988;3.162;2022-11-06T05:16:41;5.65;;;2.50;;
18194;SDS011;9223;50.988;3.162;2022-11-06T05:22:44;6.30;;;2.53;;
18194;SDS011;9223;50.988;3.162;2022-11-06T05:29:01;4.57;;;2.28;;
18194;SDS011;9223;50.988;3.162;2022-11-06T05:35:06;3.95;;;2.25;;
18194;SDS011;9223;50.988;3.162;2022-11-06T05:41:10;2.83;;;1.55;;
18194;SDS011;9223;50.988;3.162;2022-11-06T05:47:13;3.55;;;2.58;;
18194;SDS011;9223;50.988;3.162;2022-11-06T05:53:18;2.33;;;1.48;;
18194;SDS011;9223;50.988;3.162;2022-11-06T05:59:21;2.88;;;1.88;;
18194;SDS011;9223;50.988;3.162;2022-11-06T06:05:25;4.35;;;2.42;;
18194;SDS011;9223;50.988;3.162;2022-11-06T06:11:29;6.63;;;2.38;;
18194;SDS011;9223;50.988;3.162;2022-11-06T06:17:33;4.97;;;2.17;;
18194;SDS011;9223;50.988;3.162;2022-11-06T06:23:36;4.55;;;1.90;;
18194;SDS011;9223;50.988;3.162;2022-11-06T06:29:41;3.58;;;1.40;;
18194;SDS011;9223;50.988;3.162;2022-11-06T06:35:44;3.78;;;1.58;;
18194;SDS011;9223;50.988;3.162;2022-11-06T06:41:48;6.53;;;1.88;;
18194;SDS011;9223;50.988;3.162;2022-11-06T06:47:52;4.07;;;2.03;;
18194;SDS011;9223;50.988;3.162;2022-11-06T06:53:56;9.70;;;2.25;;
18194;SDS011;9223;50.988;3.162;2022-11-06T06:59:59;4.03;;;2.00;;
18194;SDS011;9223;50.988;3.162;2022-11-06T07:06:05;4.80;;;2.00;;
18194;SDS011;9223;50.988;3.162;2022-11-06T07:12:08;4.70;;;1.80;;
18194;SDS011;9223;50.988;3.162;2022-11-06T07:18:12;2.60;;;1.60;;
18194;SDS011;9223;50.988;3.162;2022-11-06T07:24:17;5.80;;;1.63;;
18194;SDS011;9223;50.988;3.162;2022-11-06T07:30:21;3.35;;;1.60;;
18194;SDS011;9223;50.988;3.162;2022-11-06T07:36:25;7.55;;;2.25;;
18194;SDS011;9223;50.988;3.162;2022-11-06T07:42:30;4.45;;;2.20;;
18194;SDS011;9223;50.988;3.162;2022-11-06T07:48:33;6.18;;;1.60;;
18194;SDS011;9223;50.988;3.162;2022-11-06T07:54:36;4.20;;;1.88;;
18194;SDS011;9223;50.988;3.162;2022-11-06T08:00:44;6.13;;;2.00;;
18194;SDS011;9223;50.988;3.162;2022-11-06T08:06:48;6.38;;;2.10;;
18194;SDS011;9223;50.988;3.162;2022-11-06T08:12:51;6.18;;;2.25;;
18194;SDS011;9223;50.988;3.162;2022-11-06T08:18:56;4.35;;;1.70;;
18194;SDS011;9223;50.988;3.162;2022-11-06T08:25:00;4.22;;;2.30;;
18194;SDS011;9223;50.988;3.162;2022-11-06T08:31:03;4.35;;;2.10;;
18194;SDS011;9223;50.988;3.162;2022-11-06T08:37:09;5.05;;;2.47;;
18194;SDS011;9223;50.988;3.162;2022-11-06T08:43:12;4.47;;;1.73;;
18194;SDS011;9223;50.988;3.162;2022-11-06T08:49:16;4.07;;;1.88;;
18194;SDS011;9223;50.988;3.162;2022-11-06T08:55:21;5.55;;;1.60;;
18194;SDS011;9223;50.988;3.162;2022-11-06T09:01:24;4.70;;;2.03;;
18194;SDS011;9223;50.988;3.162;2022-11-06T09:07:28;3.72;;;2.35;;
18194;SDS011;9223;50.988;3.162;2022-11-06T09:13:33;4.25;;;1.90;;
18194;SDS011;9223;50.988;3.162;2022-11-06T09:19:37;3.60;;;1.65;;
18194;SDS011;9223;50.988;3.162;2022-11-06T09:25:40;4.78;;;2.03;;
18194;SDS011;9223;50.988;3.162;2022-11-06T09:31:45;4.57;;;2.42;;
18194;SDS011;9223;50.988;3.162;2022-11-06T09:37:49;2.83;;;1.85;;
18194;SDS011;9223;50.988;3.162;2022-11-06T09:43:57;6.85;;;1.88;;
18194;SDS011;9223;50.988;3.162;2022-11-06T09:50:10;2.28;;;1.42;;
18194;SDS011;9223;50.988;3.162;2022-11-06T09:56:16;4.88;;;2.38;;
18194;SDS011;9223;50.988;3.162;2022-11-06T10:02:24;3.40;;;1.83;;
18194;SDS011;9223;50.988;3.162;2022-11-06T10:08:31;6.32;;;2.17;;
18194;SDS011;9223;50.988;3.162;2022-11-06T10:14:39;4.47;;;2.60;;
18194;SDS011;9223;50.988;3.162;2022-11-06T10:20:48;3.65;;;2.13;;
18194;SDS011;9223;50.988;3.162;2022-11-06T10:26:55;3.92;;;1.92;;
18194;SDS011;9223;50.988;3.162;2022-11-06T10:33:03;5.82;;;3.00;;
18194;SDS011;9223;50.988;3.162;2022-11-06T10:39:11;5.97;;;2.65;;
18194;SDS011;9223;50.988;3.162;2022-11-06T10:45:17;6.63;;;2.88;;
18194;SDS011;9223;50.988;3.162;2022-11-06T10:51:24;5.15;;;2.22;;
18194;SDS011;9223;50.988;3.162;2022-11-06T10:57:33;5.68;;;2.50;;
18194;SDS011;9223;50.988;3.162;2022-11-06T11:03:40;3.72;;;1.95;;
18194;SDS011;9223;50.988;3.162;2022-11-06T11:09:46;2.60;;;1.67;;
18194;SDS011;9223;50.988;3.162;2022-11-06T11:15:51;4.72;;;2.03;;
18194;SDS011;9223;50.988;3.162;2022-11-06T11:21:56;2.28;;;1.90;;
18194;SDS011;9223;50.988;3.162;2022-11-06T11:28:00;4.43;;;2.28;;
18194;SDS011;9223;50.988;3.162;2022-11-06T11:34:09;3.35;;;1.55;;
18194;SDS011;9223;50.988;3.162;2022-11-06T11:40:19;2.50;;;1.35;;
18194;SDS011;9223;50.988;3.162;2022-11-06T11:46:23;3.95;;;1.20;;
18194;SDS011;9223;50.988;3.162;2022-11-06T11:52:27;2.53;;;1.42;;
18194;SDS011;9223;50.988;3.162;2022-11-06T11:58:32;2.08;;;1.15;;
18194;SDS011;9223;50.988;3.162;2022-11-06T12:04:37;2.90;;;1.30;;
18194;SDS011;9223;50.988;3.162;2022-11-06T12:10:42;2.75;;;1.30;;
18194;SDS011;9223;50.988;3.162;2022-11-06T12:16:48;2.17;;;1.55;;
18194;SDS011;9223;50.988;3.162;2022-11-06T12:22:53;4.90;;;2.17;;
18194;SDS011;9223;50.988;3.162;2022-11-06T12:28:59;5.63;;;2.22;;
18194;SDS011;9223;50.988;3.162;2022-11-06T12:35:08;9.48;;;2.65;;
18194;SDS011;9223;50.988;3.162;2022-11-06T12:41:16;4.85;;;2.33;;
18194;SDS011;9223;50.988;3.162;2022-11-06T12:47:26;3.50;;;1.88;;
18194;SDS011;9223;50.988;3.162;2022-11-06T12:53:39;4.22;;;2.05;;
18194;SDS011;9223;50.988;3.162;2022-11-06T12:59:52;4.35;;;2.05;;
18194;SDS011;9223;50.988;3.162;2022-11-06T13:05:59;4.03;;;1.77;;
18194;SDS011;9223;50.988;3.162;2022-11-06T13:12:16;5.43;;;2.17;;
18194;SDS011;9223;50.988;3.162;2022-11-06T13:18:22;6.32;;;3.20;;
18194;SDS011;9223;50.988;3.162;2022-11-06T13:24:29;2.00;;;1.58;;
18194;SDS011;9223;50.988;3.162;2022-11-06T13:30:35;2.05;;;1.67;;
18194;SDS011;9223;50.988;3.162;2022-11-06T13:36:40;2.03;;;1.48;;
18194;SDS011;9223;50.988;3.162;2022-11-06T13:42:44;2.17;;;1.65;;
18194;SDS011;9223;50.988;3.162;2022-11-06T13:48:52;3.15;;;1.60;;
18194;SDS011;9223;50.988;3.162;2022-11-06T13:55:02;4.15;;;2.70;;
18194;SDS011;9223;50.988;3.162;2022-11-06T14:01:10;3.22;;;1.60;;
18194;SDS011;9223;50.988;3.162;2022-11-06T14:07:18;3.65;;;2.10;;
18194;SDS011;9223;50.988;3.162;2022-11-06T14:13:26;3.17;;;1.80;;
18194;SDS011;9223;50.988;3.162;2022-11-06T14:19:30;2.03;;;1.40;;
18194;SDS011;9223;50.988;3.162;2022-11-06T14:25:45;3.00;;;1.90;;
18194;SDS011;9223;50.988;3.162;2022-11-06T14:31:58;2.97;;;2.03;;
18194;SDS011;9223;50.988;3.162;2022-11-06T14:38:15;4.80;;;2.60;;
18194;SDS011;9223;50.988;3.162;2022-11-06T14:44:27;6.35;;;1.92;;
18194;SDS011;9223;50.988;3.162;2022-11-06T14:50:34;2.85;;;1.63;;
18194;SDS011;9223;50.988;3.162;2022-11-06T14:56:39;4.60;;;1.77;;
18194;SDS011;9223;50.988;3.162;2022-11-06T15:02:44;2.15;;;1.80;;
18194;SDS011;9223;50.988;3.162;2022-11-06T15:08:57;2.97;;;2.03;;
18194;SDS011;9223;50.988;3.162;2022-11-06T15:15:02;2.70;;;2.30;;
18194;SDS011;9223;50.988;3.162;2022-11-06T15:21:14;2.60;;;2.40;;
18194;SDS011;9223;50.988;3.162;2022-11-06T15:27:21;6.18;;;3.80;;
18194;SDS011;9223;50.988;3.162;2022-11-06T15:33:27;9.00;;;5.38;;
18194;SDS011;9223;50.988;3.162;2022-11-06T15:39:37;5.72;;;2.50;;
18194;SDS011;9223;50.988;3.162;2022-11-06T15:45:41;3.53;;;2.13;;
18194;SDS011;9223;50.988;3.162;2022-11-06T15:51:51;3.75;;;2.58;;
18194;SDS011;9223;50.988;3.162;2022-11-06T15:58:05;2.55;;;2.13;;
18194;SDS011;9223;50.988;3.162;2022-11-06T16:04:10;3.22;;;2.30;;
18194;SDS011;9223;50.988;3.162;2022-11-06T16:10:16;3.38;;;2.50;;
18194;SDS011;9223;50.988;3.162;2022-11-06T16:16:31;2.63;;;2.42;;
18194;SDS011;9223;50.988;3.162;2022-11-06T16:22:35;4.25;;;3.22;;
18194;SDS011;9223;50.988;3.162;2022-11-06T16:28:40;4.05;;;2.92;;
18194;SDS011;9223;50.988;3.162;2022-11-06T16:34:46;3.60;;;2.70;;
18194;SDS011;9223;50.988;3.162;2022-11-06T16:40:50;2.28;;;2.08;;
18194;SDS011;9223;50.988;3.162;2022-11-06T16:47:15;4.78;;;3.00;;
18194;SDS011;9223;50.988;3.162;2022-11-06T16:53:21;6.22;;;3.83;;
18194;SDS011;9223;50.988;3.162;2022-11-06T16:59:26;3.53;;;2.50;;
18194;SDS011;9223;50.988;3.162;2022-11-06T17:05:29;4.50;;;3.45;;
18194;SDS011;9223;50.988;3.162;2022-11-06T17:11:36;3.20;;;2.90;;
18194;SDS011;9223;50.988;3.162;2022-11-06T17:17:39;4.20;;;3.63;;
18194;SDS011;9223;50.988;3.162;2022-11-06T17:23:44;4.72;;;3.22;;
18194;SDS011;9223;50.988;3.162;2022-11-06T17:29:53;5.22;;;2.92;;
18194;SDS011;9223;50.988;3.162;2022-11-06T17:35:57;4.53;;;3.70;;
18194;SDS011;9223;50.988;3.162;2022-11-06T17:42:01;8.63;;;6.20;;
18194;SDS011;9223;50.988;3.162;2022-11-06T17:48:06;7.40;;;4.95;;
18194;SDS011;9223;50.988;3.162;2022-11-06T17:54:10;5.20;;;3.90;;
18194;SDS011;9223;50.988;3.162;2022-11-06T18:00:13;4.80;;;3.72;;
18194;SDS011;9223;50.988;3.162;2022-11-06T18:06:19;10.02;;;6.45;;
18194;SDS011;9223;50.988;3.162;2022-11-06T18:12:22;11.73;;;6.53;;
18194;SDS011;9223;50.988;3.162;2022-11-06T18:18:28;6.10;;;3.50;;
18194;SDS011;9223;50.988;3.162;2022-11-06T18:24:33;7.05;;;4.65;;
18194;SDS011;9223;50.988;3.162;2022-11-06T18:30:38;3.58;;;3.17;;
18194;SDS011;9223;50.988;3.162;2022-11-06T18:36:42;6.28;;;4.80;;
18194;SDS011;9223;50.988;3.162;2022-11-06T18:42:46;5.97;;;3.72;;
18194;SDS011;9223;50.988;3.162;2022-11-06T18:48:50;2.85;;;2.60;;
18194;SDS011;9223;50.988;3.162;2022-11-06T18:54:54;4.63;;;4.03;;
18194;SDS011;9223;50.988;3.162;2022-11-06T19:01:04;4.40;;;3.33;;
18194;SDS011;9223;50.988;3.162;2022-11-06T19:07:08;3.28;;;2.80;;
18194;SDS011;9223;50.988;3.162;2022-11-06T19:13:11;5.40;;;3.30;;
18194;SDS011;9223;50.988;3.162;2022-11-06T19:19:16;5.85;;;4.20;;
18194;SDS011;9223;50.988;3.162;2022-11-06T19:25:26;6.28;;;4.65;;
18194;SDS011;9223;50.988;3.162;2022-11-06T19:31:30;5.18;;;3.60;;
18194;SDS011;9223;50.988;3.162;2022-11-06T19:37:35;6.28;;;3.88;;
18194;SDS011;9223;50.988;3.162;2022-11-06T19:43:39;5.25;;;3.10;;
18194;SDS011;9223;50.988;3.162;2022-11-06T19:49:42;2.63;;;2.40;;
18194;SDS011;9223;50.988;3.162;2022-11-06T19:55:47;2.47;;;2.28;;
18194;SDS011;9223;50.988;3.162;2022-11-06T20:01:51;5.90;;;2.80;;
18194;SDS011;9223;50.988;3.162;2022-11-06T20:07:56;4.03;;;3.15;;
18194;SDS011;9223;50.988;3.162;2022-11-06T20:14:01;5.65;;;2.58;;
18194;SDS011;9223;50.988;3.162;2022-11-06T20:20:05;4.22;;;2.78;;
18194;SDS011;9223;50.988;3.162;2022-11-06T20:26:09;4.28;;;3.10;;
18194;SDS011;9223;50.988;3.162;2022-11-06T20:32:14;3.80;;;2.53;;
18194;SDS011;9223;50.988;3.162;2022-11-06T20:38:19;3.35;;;2.58;;
18194;SDS011;9223;50.988;3.162;2022-11-06T20:44:23;5.05;;;2.33;;
18194;SDS011;9223;50.988;3.162;2022-11-06T20:50:28;5.75;;;2.90;;
18194;SDS011;9223;50.988;3.162;2022-11-06T20:56:32;4.03;;;2.35;;
18194;SDS011;9223;50.988;3.162;2022-11-06T21:02:35;4.63;;;2.25;;
18194;SDS011;9223;50.988;3.162;2022-11-06T21:08:40;5.05;;;2.60;;
18194;SDS011;9223;50.988;3.162;2022-11-06T21:14:43;5.45;;;2.63;;
18194;SDS011;9223;50.988;3.162;2022-11-06T21:20:47;3.33;;;2.10;;
18194;SDS011;9223;50.988;3.162;2022-11-06T21:26:52;5.05;;;2.90;;
18194;SDS011;9223;50.988;3.162;2022-11-06T21:32:56;4.07;;;2.63;;
18194;SDS011;9223;50.988;3.162;2022-11-06T21:39:00;4.18;;;2.40;;
18194;SDS011;9223;50.988;3.162;2022-11-06T21:45:06;2.70;;;1.85;;
18194;SDS011;9223;50.988;3.162;2022-11-06T21:51:15;8.23;;;2.35;;
18194;SDS011;9223;50.988;3.162;2022-11-06T21:57:19;4.53;;;2.13;;
18194;SDS011;9223;50.988;3.162;2022-11-06T22:03:24;4.40;;;2.03;;
18194;SDS011;9223;50.988;3.162;2022-11-06T22:09:28;5.75;;;2.67;;
18194;SDS011;9223;50.988;3.162;2022-11-06T22:15:31;4.57;;;2.47;;
18194;SDS011;9223;50.988;3.162;2022-11-06T22:21:37;3.90;;;2.50;;
18194;SDS011;9223;50.988;3.162;2022-11-06T22:27:41;4.47;;;2.58;;
18194;SDS011;9223;50.988;3.162;2022-11-06T22:33:44;3.47;;;2.15;;
18194;SDS011;9223;50.988;3.162;2022-11-06T22:39:55;5.22;;;2.50;;
18194;SDS011;9223;50.988;3.162;2022-11-06T22:45:59;4.82;;;2.17;;
18194;SDS011;9223;50.988;3.162;2022-11-06T22:52:03;4.43;;;2.17;;
18194;SDS011;9223;50.988;3.162;2022-11-06T22:58:08;9.50;;;3.47;;
18194;SDS011;9223;50.988;3.162;2022-11-06T23:04:12;8.77;;;2.90;;
18194;SDS011;9223;50.988;3.162;2022-11-06T23:10:16;7.05;;;2.30;;
18194;SDS011;9223;50.988;3.162;2022-11-06T23:16:30;3.92;;;2.22;;
18194;SDS011;9223;50.988;3.162;2022-11-06T23:22:51;8.40;;;2.45;;
18194;SDS011;9223;50.988;3.162;2022-11-06T23:28:55;5.45;;;2.70;;
18194;SDS011;9223;50.988;3.162;2022-11-06T23:35:00;4.72;;;2.25;;
18194;SDS011;9223;50.988;3.162;2022-11-06T23:41:05;2.60;;;1.83;;
18194;SDS011;9223;50.988;3.162;2022-11-06T23:47:23;3.58;;;1.88;;
18194;SDS011;9223;50.988;3.162;2022-11-06T23:53:27;3.75;;;2.17;;
18194;SDS011;9223;50.988;3.162;2022-11-06T23:59:31;4.60;;;1.85;;
